Time;durP1;ratioP1;P1;durP2;ratioP2;P2;SDS_P1;SDS_P2;PMS_P1;PMS_P2;Temp;Humidity;BMP_temperature;BMP_pressure;BME280_temperature;BME280_humidity;BME280_pressure;Samples;Min_cycle;Max_cycle;Signal;HPM_P1;HPM_P2
2023/10/11 00:00:33;;;;;;;;;;;;;;;9.51;100.00;99192.70;137316;1276;22282;-78
2023/10/11 00:03:58;;;;;;;;;;;;;;;9.54;100.00;99192.79;137371;1276;22338;-78
2023/10/11 00:07:01;;;;;;;;;;;;;;;9.57;100.00;99186.09;137284;1276;22300;-78
2023/10/11 00:10:10;;;;;;;;;;;;;;;9.61;100.00;99172.96;137252;1276;22683;-75
2023/10/11 00:13:15;;;;;;;;;;;;;;;9.64;100.00;99168.52;137324;1272;22646;-78
2023/10/11 00:16:17;;;;;;;;;;;;;;;9.66;100.00;99166.98;137318;1276;22193;-78
2023/10/11 00:19:28;;;;;;;;;;;;;;;9.69;100.00;99164.45;137395;1276;22282;-77
2023/10/11 00:22:32;;;;;;;;;;;;;;;9.72;100.00;99166.41;137340;1276;23326;-77
2023/10/11 00:25:35;;;;;;;;;;;;;;;9.74;100.00;99163.68;137363;1276;22264;-77
2023/10/11 00:28:38;;;;;;;;;;;;;;;9.77;100.00;99155.75;137317;1276;22696;-78
2023/10/11 00:31:41;;;;;;;;;;;;;;;9.79;100.00;99153.70;137359;1276;22816;-78
2023/10/11 00:34:43;;;;;;;;;;;;;;;9.79;100.00;99146.23;137330;1276;22596;-77
2023/10/11 00:37:47;;;;;;;;;;;;;;;9.80;100.00;99136.52;137399;1276;22292;-77
2023/10/11 00:41:07;;;;;;;;;;;;;;;9.81;100.00;99132.18;137335;1276;22675;-77
2023/10/11 00:44:09;;;;;;;;;;;;;;;9.81;100.00;99130.45;137365;1276;22419;-78
2023/10/11 00:47:16;;;;;;;;;;;;;;;9.82;100.00;99129.08;137321;1276;22727;-77
2023/10/11 00:50:18;;;;;;;;;;;;;;;9.85;100.00;99132.95;137342;1276;22320;-77
2023/10/11 00:53:21;;;;;;;;;;;;;;;9.85;100.00;99124.98;137305;1276;22338;-78
2023/10/11 00:56:26;;;;;;;;;;;;;;;9.87;100.00;99127.27;137343;1276;22224;-77
2023/10/11 00:59:29;;;;;;;;;;;;;;;9.89;100.00;99121.21;137343;1276;22789;-78
2023/10/11 01:02:32;;;;;;;;;;;;;;;9.93;100.00;99118.67;137293;1276;22214;-78
2023/10/11 01:05:35;;;;;;;;;;;;;;;9.95;100.00;99112.80;137354;1276;22334;-77
2023/10/11 01:08:40;;;;;;;;;;;;;;;9.99;100.00;99110.97;137390;1276;22308;-78
2023/10/11 01:11:42;;;;;;;;;;;;;;;10.01;100.00;99108.76;137391;1276;22280;-77
2023/10/11 01:14:57;;;;;;;;;;;;;;;10.04;100.00;99106.20;137427;1276;22233;-77
2023/10/11 01:18:00;;;;;;;;;;;;;;;10.06;100.00;99104.48;137409;1276;22284;-78
2023/10/11 01:21:03;;;;;;;;;;;;;;;10.09;100.00;99105.25;137316;1271;22274;-78
2023/10/11 01:24:08;;;;;;;;;;;;;;;10.13;100.00;99094.19;137321;1276;22406;-78
2023/10/11 01:27:13;;;;;;;;;;;;;;;10.15;100.00;99091.80;137320;1276;22297;-78
2023/10/11 01:30:16;;;;;;;;;;;;;;;10.19;100.00;99087.33;137308;1276;22253;-80
2023/10/11 01:33:18;;;;;;;;;;;;;;;10.21;100.00;99087.40;137309;1264;22217;-78
2023/10/11 01:36:21;;;;;;;;;;;;;;;10.25;100.00;99086.59;137294;1276;22231;-78
2023/10/11 01:39:23;;;;;;;;;;;;;;;10.28;100.00;99091.52;137291;1276;22674;-78
2023/10/11 01:42:26;;;;;;;;;;;;;;;10.32;100.00;99090.02;137318;1273;22469;-78
2023/10/11 01:45:28;;;;;;;;;;;;;;;10.36;100.00;99087.48;137312;1276;22207;-78
2023/10/11 01:48:31;;;;;;;;;;;;;;;10.40;100.00;99090.16;137356;1276;22291;-78
2023/10/11 01:51:38;;;;;;;;;;;;;;;10.43;100.00;99090.77;137342;1276;22324;-77
2023/10/11 01:54:41;;;;;;;;;;;;;;;10.47;100.00;99089.43;137380;1276;22356;-78
2023/10/11 01:57:46;;;;;;;;;;;;;;;10.51;100.00;99089.16;137217;1276;187737;-78
2023/10/11 02:04:16;;;;;;;;;;;;;;;10.61;100.00;99096.98;137361;1276;22419;-81
2023/10/11 02:07:21;;;;;;;;;;;;;;;10.64;100.00;99091.09;137360;1276;22271;-79
2023/10/11 02:10:26;;;;;;;;;;;;;;;10.66;100.00;99085.55;137356;1276;22272;-81
2023/10/11 02:13:30;;;;;;;;;;;;;;;10.66;100.00;99077.38;137364;1276;22737;-79
2023/10/11 02:16:33;;;;;;;;;;;;;;;10.66;100.00;99072.15;137367;1276;22350;-83
2023/10/11 02:19:35;;;;;;;;;;;;;;;10.68;100.00;99071.30;137359;1276;22315;-82
2023/10/11 02:22:42;;;;;;;;;;;;;;;10.70;100.00;99062.47;137354;1276;22437;-81
2023/10/11 02:25:46;;;;;;;;;;;;;;;10.73;100.00;99061.12;137348;1276;22190;-83
2023/10/11 02:28:48;;;;;;;;;;;;;;;10.77;100.00;99065.17;137358;1276;22265;-81
2023/10/11 02:31:51;;;;;;;;;;;;;;;10.81;100.00;99058.63;137388;1276;22654;-85
2023/10/11 02:34:54;;;;;;;;;;;;;;;10.83;100.00;99056.91;137382;1276;22220;-84
2023/10/11 02:37:58;;;;;;;;;;;;;;;10.87;100.00;99063.23;137386;1276;22196;-82
2023/10/11 02:41:02;;;;;;;;;;;;;;;10.93;100.00;99068.20;137359;1276;22283;-84
2023/10/11 02:44:07;;;;;;;;;;;;;;;10.96;100.00;99065.63;137318;1276;22447;-84
2023/10/11 02:47:09;;;;;;;;;;;;;;;10.96;100.00;99063.17;137341;1276;22279;-85
2023/10/11 02:50:12;;;;;;;;;;;;;;;10.94;100.00;99061.57;137337;1276;22304;-84
2023/10/11 02:53:22;;;;;;;;;;;;;;;10.93;100.00;99056.70;137367;1276;22453;-84
2023/10/11 02:56:25;;;;;;;;;;;;;;;10.95;100.00;99058.46;137356;1268;22298;-85
2023/10/11 02:59:27;;;;;;;;;;;;;;;10.98;100.00;99052.58;137307;1276;22312;-84
2023/10/11 03:02:30;;;;;;;;;;;;;;;11.00;100.00;99052.78;137381;1276;22740;-84
2023/10/11 03:05:37;;;;;;;;;;;;;;;11.04;100.00;99050.23;137350;1261;22208;-83
2023/10/11 03:08:40;;;;;;;;;;;;;;;11.04;100.00;99049.36;137318;1268;22200;-81
2023/10/11 03:11:45;;;;;;;;;;;;;;;11.04;100.00;99050.05;137297;1276;22261;-84
2023/10/11 03:14:54;;;;;;;;;;;;;;;11.05;100.00;99050.95;137270;1276;22323;-84
2023/10/11 03:17:56;;;;;;;;;;;;;;;11.07;100.00;99050.10;137277;1276;22308;-83
2023/10/11 03:21:07;;;;;;;;;;;;;;;11.10;100.00;99044.04;137323;1276;22309;-83
2023/10/11 03:24:11;;;;;;;;;;;;;;;11.12;100.00;99048.23;137309;1273;22381;-85
2023/10/11 03:27:14;;;;;;;;;;;;;;;11.13;100.00;99040.23;137307;1276;22230;-84
2023/10/11 03:30:16;;;;;;;;;;;;;;;11.16;100.00;99039.06;137289;1276;22311;-84
2023/10/11 03:33:19;;;;;;;;;;;;;;;11.19;100.00;99036.14;137298;1276;22307;-83
2023/10/11 03:36:28;;;;;;;;;;;;;;;11.18;100.00;99038.56;137322;1276;22286;-81
2023/10/11 03:39:39;;;;;;;;;;;;;;;11.20;100.00;99032.14;137324;1272;22247;-80
2023/10/11 03:42:53;;;;;;;;;;;;;;;11.25;100.00;99024.02;137280;1276;22365;-81
2023/10/11 03:46:00;;;;;;;;;;;;;;;11.35;100.00;99022.77;137329;1276;22650;-82
2023/10/11 03:49:14;;;;;;;;;;;;;;;11.37;100.00;99017.23;137287;1276;22181;-82
2023/10/11 03:52:22;;;;;;;;;;;;;;;11.36;100.00;99017.21;137356;1276;22254;-81
2023/10/11 03:55:25;;;;;;;;;;;;;;;11.37;100.00;99018.27;137273;1276;22783;-80
2023/10/11 03:58:37;;;;;;;;;;;;;;;11.39;100.00;99018.81;137277;1270;22284;-81
2023/10/11 04:01:39;;;;;;;;;;;;;;;11.42;100.00;99017.98;137291;1276;23267;-81
2023/10/11 04:04:42;;;;;;;;;;;;;;;11.46;100.00;99018.89;137230;1264;22173;-81
2023/10/11 04:07:45;;;;;;;;;;;;;;;11.48;100.00;99013.34;137291;1276;22307;-81
2023/10/11 04:10:49;;;;;;;;;;;;;;;11.49;100.00;99011.44;137291;1276;22274;-81
2023/10/11 04:13:53;;;;;;;;;;;;;;;11.52;100.00;99010.07;137245;1276;22269;-82
2023/10/11 04:16:56;;;;;;;;;;;;;;;11.55;100.00;99006.95;137278;1276;22343;-82
2023/10/11 04:20:17;;;;;;;;;;;;;;;11.59;100.00;99007.70;137223;1276;22309;-82
2023/10/11 04:23:24;;;;;;;;;;;;;;;11.61;100.00;99007.38;137217;1276;22356;-82
2023/10/11 04:26:40;;;;;;;;;;;;;;;11.61;100.00;99010.86;137195;1276;22369;-82
2023/10/11 04:29:44;;;;;;;;;;;;;;;11.60;100.00;99008.23;137234;1276;22321;-81
2023/10/11 04:32:46;;;;;;;;;;;;;;;11.59;100.00;99006.30;137185;1276;22212;-81
2023/10/11 04:35:55;;;;;;;;;;;;;;;11.58;100.00;99001.94;137240;1276;22287;-82
2023/10/11 04:39:03;;;;;;;;;;;;;;;11.56;100.00;98993.02;137221;1276;22168;-82
2023/10/11 04:42:06;;;;;;;;;;;;;;;11.54;100.00;98990.21;137181;1276;22279;-82
2023/10/11 04:45:21;;;;;;;;;;;;;;;11.53;100.00;98987.59;137141;1276;22319;-82
2023/10/11 04:48:36;;;;;;;;;;;;;;;11.55;100.00;98987.96;137196;1276;22244;-82
2023/10/11 04:51:41;;;;;;;;;;;;;;;11.54;100.00;98990.21;137232;1276;22342;-82
2023/10/11 04:54:53;;;;;;;;;;;;;;;11.50;100.00;98986.16;137270;1276;22407;-81
2023/10/11 04:58:04;;;;;;;;;;;;;;;11.47;100.00;98988.23;137266;1276;22336;-82
2023/10/11 05:01:08;;;;;;;;;;;;;;;11.46;100.00;98988.23;137306;1276;22238;-82
2023/10/11 05:04:14;;;;;;;;;;;;;;;11.44;100.00;98990.64;137356;1276;22337;-82
2023/10/11 05:07:19;;;;;;;;;;;;;;;11.42;100.00;98989.23;137366;1273;22254;-81
2023/10/11 05:10:42;;;;;;;;;;;;;;;11.41;100.00;98988.52;137378;1276;22281;-81
2023/10/11 05:13:59;;;;;;;;;;;;;;;11.42;100.00;98985.05;137393;1276;22307;-82
2023/10/11 05:17:16;;;;;;;;;;;;;;;11.39;100.00;98982.92;137270;1276;22303;-82
2023/10/11 05:20:37;;;;;;;;;;;;;;;11.36;100.00;98987.07;137274;1276;22249;-81
2023/10/11 05:24:13;;;;;;;;;;;;;;;11.36;100.00;98987.59;137246;1276;22359;-81
2023/10/11 05:27:47;;;;;;;;;;;;;;;11.39;100.00;98989.70;137125;1276;22958;-82
2023/10/11 05:31:01;;;;;;;;;;;;;;;11.43;100.00;98994.81;137211;1276;22828;-82
2023/10/11 05:50:58;;;;;;;;;;;;;;;11.76;100.00;99001.61;137244;1276;22238;-81
2023/10/11 05:54:00;;;;;;;;;;;;;;;11.87;100.00;99001.55;137252;1276;22390;-81
2023/10/11 05:57:04;;;;;;;;;;;;;;;12.02;100.00;98999.77;137260;1276;22713;-81
2023/10/11 06:00:18;;;;;;;;;;;;;;;12.09;100.00;99002.80;137254;1276;22743;-81
2023/10/11 06:03:20;;;;;;;;;;;;;;;12.17;100.00;98998.17;137296;1276;22650;-81
2023/10/11 06:06:32;;;;;;;;;;;;;;;12.27;100.00;98994.77;137264;1273;22257;-81
2023/10/11 06:09:43;;;;;;;;;;;;;;;12.35;100.00;98996.75;137222;1276;22842;-81
2023/10/11 06:12:45;;;;;;;;;;;;;;;12.43;100.00;98989.64;137227;1268;22277;-76
2023/10/11 06:15:58;;;;;;;;;;;;;;;12.50;100.00;98988.99;137218;1276;22256;-81
2023/10/11 06:19:16;;;;;;;;;;;;;;;12.57;100.00;98990.96;137186;1276;22325;-80
2023/10/11 06:22:18;;;;;;;;;;;;;;;12.65;100.00;98997.46;137173;1274;22716;-80
2023/10/11 06:25:49;;;;;;;;;;;;;;;12.73;100.00;98994.54;137204;1276;22381;-80
2023/10/11 06:28:47;;;;;;;;;;;;;;;12.81;100.00;98993.20;137209;1276;22437;-81
2023/10/11 06:31:49;;;;;;;;;;;;;;;13.10;100.00;98993.01;137250;1276;22996;-82
2023/10/11 06:34:52;;;;;;;;;;;;;;;13.17;100.00;98990.42;137248;1276;22663;-80
2023/10/11 06:37:55;;;;;;;;;;;;;;;13.25;100.00;98990.82;137224;1276;22205;-79
2023/10/11 06:41:36;;;;;;;;;;;;;;;13.33;100.00;98992.60;137270;1276;22532;-81
2023/10/11 06:44:22;;;;;;;;;;;;;;;13.47;100.00;98987.39;137233;1276;22376;-82
2023/10/11 06:47:25;;;;;;;;;;;;;;;13.63;100.00;98981.30;137301;1276;22366;-81
2023/10/11 06:50:35;;;;;;;;;;;;;;;13.81;100.00;98978.55;137304;1276;22254;-82
2023/10/11 06:53:42;;;;;;;;;;;;;;;14.04;100.00;98983.83;137296;1276;22480;-84
2023/10/11 06:56:45;;;;;;;;;;;;;;;14.24;100.00;98987.84;137296;1276;22288;-80
2023/10/11 06:59:49;;;;;;;;;;;;;;;14.42;100.00;98992.92;137303;1276;22281;-81
2023/10/11 07:02:52;;;;;;;;;;;;;;;14.62;100.00;98988.88;137263;1276;22733;-80
2023/10/11 07:05:56;;;;;;;;;;;;;;;14.85;100.00;98983.08;137205;1276;22271;-81
2023/10/11 07:08:59;;;;;;;;;;;;;;;15.08;100.00;98975.63;137236;1276;22274;-82
2023/10/11 07:15:20;;;;;;;;;;;;;;;15.53;100.00;98969.80;137228;1266;22476;-80
2023/10/11 07:18:25;;;;;;;;;;;;;;;15.79;100.00;98962.48;137244;1276;22405;-83
2023/10/11 07:21:41;;;;;;;;;;;;;;;16.02;100.00;98958.79;137239;1276;22296;-81
2023/10/11 07:24:43;;;;;;;;;;;;;;;16.27;100.00;98956.11;137252;1276;22361;-81
2023/10/11 07:27:53;;;;;;;;;;;;;;;16.49;100.00;98959.61;137224;1276;22308;-81
2023/10/11 07:30:56;;;;;;;;;;;;;;;16.66;100.00;98958.93;137242;1276;22635;-81
2023/10/11 07:33:58;;;;;;;;;;;;;;;16.78;100.00;98963.39;137251;1276;22265;-81
2023/10/11 07:37:03;;;;;;;;;;;;;;;16.91;100.00;98966.40;137311;1276;22286;-83
2023/10/11 07:40:09;;;;;;;;;;;;;;;17.07;100.00;98961.81;137263;1276;22239;-82
2023/10/11 07:43:15;;;;;;;;;;;;;;;17.20;100.00;98953.73;137267;1276;22451;-83
2023/10/11 07:46:19;;;;;;;;;;;;;;;17.35;100.00;98949.51;137223;1276;22354;-81
2023/10/11 07:49:23;;;;;;;;;;;;;;;17.52;100.00;98946.81;137255;1276;22187;-81
2023/10/11 07:52:26;;;;;;;;;;;;;;;17.71;100.00;98944.96;137219;1269;22351;-80
2023/10/11 07:55:28;;;;;;;;;;;;;;;17.93;100.00;98938.11;137255;1274;22687;-80
2023/10/11 07:58:32;;;;;;;;;;;;;;;18.03;100.00;98938.48;137242;1276;22261;-80
2023/10/11 08:01:42;;;;;;;;;;;;;;;18.21;100.00;98940.84;137244;1276;22290;-79
2023/10/11 08:04:47;;;;;;;;;;;;;;;18.31;100.00;98951.77;137241;1276;22231;-80
2023/10/11 08:07:49;;;;;;;;;;;;;;;18.44;100.00;98952.77;137202;1276;22276;-81
2023/10/11 08:10:54;;;;;;;;;;;;;;;18.51;100.00;98952.27;137239;1276;22654;-80
2023/10/11 08:14:00;;;;;;;;;;;;;;;18.64;100.00;98941.67;137195;1276;22179;-79
2023/10/11 08:17:10;;;;;;;;;;;;;;;18.76;100.00;98934.40;137210;1276;22179;-80
2023/10/11 08:20:15;;;;;;;;;;;;;;;18.86;100.00;98936.31;137228;1276;22303;-77
2023/10/11 08:23:28;;;;;;;;;;;;;;;19.00;100.00;98937.27;137268;1276;22458;-80
2023/10/11 08:26:42;;;;;;;;;;;;;;;19.16;100.00;98937.30;137224;1276;22194;-79
2023/10/11 08:29:45;;;;;;;;;;;;;;;19.30;100.00;98929.23;137235;1276;22178;-79
2023/10/11 08:32:48;;;;;;;;;;;;;;;19.46;100.00;98929.58;137252;1276;22266;-78
2023/10/11 08:35:53;;;;;;;;;;;;;;;19.64;100.00;98924.25;137270;1268;22201;-78
2023/10/11 08:38:55;;;;;;;;;;;;;;;19.81;100.00;98920.31;137196;1276;22288;-78
2023/10/11 08:41:58;;;;;;;;;;;;;;;19.97;100.00;98921.89;137247;1268;22216;-78
2023/10/11 08:45:00;;;;;;;;;;;;;;;20.13;100.00;98925.04;137224;1276;22414;-78
2023/10/11 08:48:05;;;;;;;;;;;;;;;20.34;100.00;98918.84;137286;1276;22780;-79
2023/10/11 08:51:10;;;;;;;;;;;;;;;20.58;100.00;98920.52;137264;1272;22255;-80
2023/10/11 08:54:16;;;;;;;;;;;;;;;20.77;100.00;98916.11;137243;1276;22375;-80
2023/10/11 08:57:19;;;;;;;;;;;;;;;20.80;100.00;98918.15;137209;1276;22198;-80
2023/10/11 09:00:29;;;;;;;;;;;;;;;20.76;100.00;98913.28;137193;1276;22335;-80
2023/10/11 09:03:32;;;;;;;;;;;;;;;20.70;100.00;98918.07;137297;1276;22270;-80
2023/10/11 09:06:35;;;;;;;;;;;;;;;20.65;100.00;98920.48;137263;1276;22275;-80
2023/10/11 09:09:39;;;;;;;;;;;;;;;20.64;100.00;98917.16;137279;1276;22704;-81
2023/10/11 09:12:42;;;;;;;;;;;;;;;20.69;100.00;98912.62;137275;1276;22359;-78
2023/10/11 09:15:45;;;;;;;;;;;;;;;20.66;100.00;98907.73;137290;1276;22280;-80
2023/10/11 09:18:47;;;;;;;;;;;;;;;20.69;100.00;98903.76;137322;1276;22273;-80
2023/10/11 09:21:50;;;;;;;;;;;;;;;20.72;100.00;98908.10;137406;1276;22744;-79
2023/10/11 09:24:55;;;;;;;;;;;;;;;20.78;100.00;98908.63;137433;1276;22374;-80
2023/10/11 09:27:58;;;;;;;;;;;;;;;20.82;100.00;98908.55;137406;1276;22320;-81
2023/10/11 09:31:02;;;;;;;;;;;;;;;20.87;100.00;98908.58;137365;1274;22249;-81
2023/10/11 09:34:05;;;;;;;;;;;;;;;20.91;100.00;98911.48;137384;1276;22304;-80
2023/10/11 09:37:07;;;;;;;;;;;;;;;20.92;100.00;98907.56;137345;1276;22278;-82
2023/10/11 09:40:15;;;;;;;;;;;;;;;20.99;100.00;98905.94;137276;1276;22248;-81
2023/10/11 09:43:18;;;;;;;;;;;;;;;21.21;100.00;98905.12;137287;1276;22431;-78
2023/10/11 09:46:20;;;;;;;;;;;;;;;21.88;100.00;98902.50;137249;1276;22261;-78
2023/10/11 09:49:25;;;;;;;;;;;;;;;22.46;100.00;98899.70;137184;1276;22290;-78
2023/10/11 09:52:28;;;;;;;;;;;;;;;22.84;100.00;98898.71;137211;1276;22298;-77
2023/10/11 09:55:31;;;;;;;;;;;;;;;23.17;100.00;98899.61;137188;1272;22201;-80
2023/10/11 09:58:33;;;;;;;;;;;;;;;23.35;100.00;98905.28;137190;1276;22333;-77
2023/10/11 10:01:38;;;;;;;;;;;;;;;23.48;78.89;98896.81;137161;1276;22280;-78
2023/10/11 10:04:40;;;;;;;;;;;;;;;23.51;64.24;98899.02;137176;1276;22249;-79
2023/10/11 10:07:46;;;;;;;;;;;;;;;23.47;63.17;98894.36;137162;1276;22262;-80
2023/10/11 10:10:48;;;;;;;;;;;;;;;23.45;63.54;98895.50;137168;1276;22283;-77
2023/10/11 10:13:50;;;;;;;;;;;;;;;23.44;62.04;98889.66;137174;1276;22261;-79
2023/10/11 10:16:53;;;;;;;;;;;;;;;23.31;62.13;98885.57;137184;1276;22280;-76
2023/10/11 10:20:00;;;;;;;;;;;;;;;23.37;62.24;98883.91;137156;1276;22258;-80
2023/10/11 10:23:02;;;;;;;;;;;;;;;23.47;61.78;98881.57;137203;1276;22386;-79
2023/10/11 10:26:05;;;;;;;;;;;;;;;23.51;61.62;98874.49;137191;1276;22342;-80
2023/10/11 10:29:11;;;;;;;;;;;;;;;23.58;61.00;98875.86;137184;1276;22532;-78
2023/10/11 10:32:16;;;;;;;;;;;;;;;23.58;60.65;98874.77;137174;1276;22864;-79
2023/10/11 10:35:19;;;;;;;;;;;;;;;23.58;60.24;98870.17;137192;1276;22392;-79
2023/10/11 10:38:22;;;;;;;;;;;;;;;23.58;60.57;98872.13;137233;1276;22245;-80
2023/10/11 10:41:25;;;;;;;;;;;;;;;23.62;60.21;98864.33;137182;1276;22311;-79
2023/10/11 10:44:29;;;;;;;;;;;;;;;23.68;60.08;98862.64;137221;1276;22486;-80
2023/10/11 10:47:32;;;;;;;;;;;;;;;23.72;59.52;98858.04;137260;1276;22353;-78
2023/10/11 10:50:37;;;;;;;;;;;;;;;23.74;59.84;98855.12;137231;1276;22309;-79
2023/10/11 10:53:39;;;;;;;;;;;;;;;23.75;59.78;98844.77;137001;1276;22481;-80
2023/10/11 10:56:42;;;;;;;;;;;;;;;23.75;59.40;98842.65;137245;1276;22283;-79
2023/10/11 10:59:44;;;;;;;;;;;;;;;23.73;59.15;98840.04;137277;1276;22300;-79
2023/10/11 11:02:47;;;;;;;;;;;;;;;23.79;59.27;98835.72;137269;1276;22257;-79
2023/10/11 11:05:49;;;;;;;;;;;;;;;23.92;59.10;98837.50;137199;1276;22656;-79
2023/10/11 11:08:53;;;;;;;;;;;;;;;23.95;58.36;98833.44;137190;1276;22733;-78
2023/10/11 11:12:02;;;;;;;;;;;;;;;24.00;57.31;98831.09;137221;1276;22340;-80
2023/10/11 11:15:08;;;;;;;;;;;;;;;23.92;57.19;98832.30;137188;1276;22283;-79
2023/10/11 11:18:11;;;;;;;;;;;;;;;23.82;56.85;98833.09;137200;1276;22296;-79
2023/10/11 11:21:19;;;;;;;;;;;;;;;23.68;57.28;98832.27;137152;1276;23076;-78
2023/10/11 11:24:27;;;;;;;;;;;;;;;23.68;57.61;98834.91;137153;1276;22421;-81
2023/10/11 11:27:32;;;;;;;;;;;;;;;23.62;58.47;98833.77;137175;1276;22184;-81
2023/10/11 11:30:34;;;;;;;;;;;;;;;23.66;58.78;98832.52;137151;1276;23028;-78
2023/10/11 11:33:47;;;;;;;;;;;;;;;23.65;58.83;98833.27;137155;1276;22287;-80
2023/10/11 11:36:51;;;;;;;;;;;;;;;23.75;58.07;98824.48;137212;1276;22254;-80
2023/10/11 11:39:53;;;;;;;;;;;;;;;23.92;57.62;98823.95;137210;1276;22290;-80
2023/10/11 11:42:57;;;;;;;;;;;;;;;24.04;57.32;98825.40;137190;1276;22951;-80
2023/10/11 11:46:01;;;;;;;;;;;;;;;24.14;56.92;98820.70;137177;1276;23041;-79
2023/10/11 11:49:09;;;;;;;;;;;;;;;24.18;56.23;98824.98;137154;1276;22156;-80
2023/10/11 11:52:16;;;;;;;;;;;;;;;24.25;55.76;98820.95;137173;1276;22257;-80
2023/10/11 11:55:20;;;;;;;;;;;;;;;24.34;56.16;98819.34;137197;1276;22803;-79
2023/10/11 11:58:22;;;;;;;;;;;;;;;24.34;56.92;98817.20;137179;1276;22233;-81
2023/10/11 12:01:26;;;;;;;;;;;;;;;24.26;56.67;98813.09;137229;1276;22321;-79
2023/10/11 12:04:30;;;;;;;;;;;;;;;24.23;56.66;98812.69;137196;1276;22203;-80
2023/10/11 12:07:32;;;;;;;;;;;;;;;24.19;57.44;98814.46;137169;1276;22266;-79
2023/10/11 12:10:37;;;;;;;;;;;;;;;24.10;57.90;98813.77;137215;1276;22251;-81
2023/10/11 12:13:39;;;;;;;;;;;;;;;23.88;57.74;98809.20;137199;1264;22258;-80
2023/10/11 12:16:42;;;;;;;;;;;;;;;23.74;57.95;98808.73;137191;1276;22263;-81
2023/10/11 12:19:53;;;;;;;;;;;;;;;23.63;58.09;98811.71;137233;1276;22730;-81
2023/10/11 12:22:55;;;;;;;;;;;;;;;23.61;58.34;98815.33;137141;1276;22428;-80
2023/10/11 12:26:08;;;;;;;;;;;;;;;23.72;58.77;98809.88;137118;1276;22267;-81
2023/10/11 12:29:12;;;;;;;;;;;;;;;23.69;58.55;98805.76;137071;1276;22316;-80
2023/10/11 12:32:17;;;;;;;;;;;;;;;23.64;57.90;98805.27;137092;1276;23069;-80
2023/10/11 12:35:23;;;;;;;;;;;;;;;23.67;58.47;98799.45;137156;1276;23088;-81
2023/10/11 12:38:25;;;;;;;;;;;;;;;23.72;58.44;98802.10;137199;1276;22295;-80
2023/10/11 12:41:28;;;;;;;;;;;;;;;23.77;58.25;98805.94;137135;1276;22369;-80
2023/10/11 12:44:30;;;;;;;;;;;;;;;23.70;58.07;98803.02;137214;1276;22428;-81
2023/10/11 12:47:34;;;;;;;;;;;;;;;23.67;57.68;98800.14;137256;1276;22262;-81
2023/10/11 12:50:37;;;;;;;;;;;;;;;23.56;57.10;98798.12;137228;1276;22286;-80
2023/10/11 12:53:43;;;;;;;;;;;;;;;23.42;56.72;98795.29;137292;1276;22492;-79
2023/10/11 12:56:45;;;;;;;;;;;;;;;23.21;56.92;98792.41;137242;1276;22332;-80
2023/10/11 12:59:48;;;;;;;;;;;;;;;23.15;57.73;98796.36;137214;1276;22727;-83
2023/10/11 13:02:50;;;;;;;;;;;;;;;23.15;58.08;98799.73;137242;1276;22269;-80
2023/10/11 13:05:53;;;;;;;;;;;;;;;23.01;57.78;98799.41;137261;1276;22340;-80
2023/10/11 13:08:55;;;;;;;;;;;;;;;22.98;58.68;98798.48;137225;1276;22304;-79
2023/10/11 13:11:58;;;;;;;;;;;;;;;23.04;59.24;98790.22;137253;1276;22849;-80
2023/10/11 13:15:02;;;;;;;;;;;;;;;23.04;59.42;98786.86;137296;1276;22364;-81
2023/10/11 13:18:09;;;;;;;;;;;;;;;22.99;59.21;98779.80;137194;1276;22310;-80
2023/10/11 13:21:12;;;;;;;;;;;;;;;22.92;59.83;98779.91;137229;1276;22329;-81
2023/10/11 13:24:16;;;;;;;;;;;;;;;22.89;59.79;98781.05;137172;1276;22390;-80
2023/10/11 13:27:22;;;;;;;;;;;;;;;22.80;60.34;98778.04;137149;1276;22663;-80
2023/10/11 13:30:25;;;;;;;;;;;;;;;22.76;60.65;98778.52;137168;1276;22197;-80
2023/10/11 13:33:30;;;;;;;;;;;;;;;22.82;61.07;98779.55;137212;1276;22275;-80
2023/10/11 13:36:33;;;;;;;;;;;;;;;22.89;60.98;98780.01;137220;1276;22298;-80
2023/10/11 13:39:44;;;;;;;;;;;;;;;22.92;60.69;98775.11;137328;1276;22292;-81
2023/10/11 13:42:47;;;;;;;;;;;;;;;22.94;60.65;98764.90;137337;1276;22366;-81
2023/10/11 13:45:56;;;;;;;;;;;;;;;22.99;60.41;98762.95;137350;1276;22308;-82
2023/10/11 13:49:09;;;;;;;;;;;;;;;23.00;60.70;98758.09;137319;1276;22462;-80
2023/10/11 13:52:12;;;;;;;;;;;;;;;23.01;60.36;98754.89;137282;1267;22661;-79
2023/10/11 13:55:15;;;;;;;;;;;;;;;22.92;60.24;98745.28;137272;1276;22368;-82
2023/10/11 13:58:19;;;;;;;;;;;;;;;22.84;60.04;98748.77;137176;1276;173743;-80
2023/10/11 14:04:53;;;;;;;;;;;;;;;22.76;60.32;98750.66;137056;1276;22412;-82
2023/10/11 14:07:56;;;;;;;;;;;;;;;22.78;59.97;98744.38;137331;1276;22224;-82
2023/10/11 14:11:00;;;;;;;;;;;;;;;22.77;59.79;98739.80;137146;1276;22407;-80
2023/10/11 14:14:04;;;;;;;;;;;;;;;22.76;59.97;98739.86;137365;1276;22221;-81
2023/10/11 14:17:15;;;;;;;;;;;;;;;22.74;60.45;98744.72;137329;1276;22228;-78
2023/10/11 14:20:21;;;;;;;;;;;;;;;22.82;60.48;98739.11;137354;1276;22288;-80
2023/10/11 14:23:27;;;;;;;;;;;;;;;22.72;60.08;98741.78;137334;1276;22407;-81
2023/10/11 14:26:33;;;;;;;;;;;;;;;22.54;60.69;98742.98;137336;1276;22346;-81
2023/10/11 14:29:37;;;;;;;;;;;;;;;22.41;61.14;98743.64;137353;1274;22268;-79
2023/10/11 14:32:39;;;;;;;;;;;;;;;22.34;61.42;98743.38;137342;1276;22275;-78
2023/10/11 14:35:42;;;;;;;;;;;;;;;22.27;61.71;98743.85;137325;1276;22391;-78
2023/10/11 14:38:46;;;;;;;;;;;;;;;22.12;62.14;98745.08;137262;1276;22354;-78
2023/10/11 14:41:50;;;;;;;;;;;;;;;21.99;62.81;98743.39;137332;1276;22281;-77
2023/10/11 14:44:53;;;;;;;;;;;;;;;21.85;63.04;98739.46;137289;1276;22882;-77
2023/10/11 14:47:56;;;;;;;;;;;;;;;21.71;63.37;98729.34;137309;1276;22224;-79
2023/10/11 14:50:59;;;;;;;;;;;;;;;21.57;63.78;98733.86;137314;1276;22744;-80
2023/10/11 14:54:01;;;;;;;;;;;;;;;21.44;64.03;98732.00;137287;1276;22378;-78
2023/10/11 14:57:04;;;;;;;;;;;;;;;21.36;63.92;98729.27;137332;1276;22312;-79
2023/10/11 15:00:07;;;;;;;;;;;;;;;21.29;63.85;98722.05;137306;1276;22311;-78
2023/10/11 15:03:09;;;;;;;;;;;;;;;21.18;64.13;98721.70;137350;1276;22655;-79
2023/10/11 15:06:13;;;;;;;;;;;;;;;21.11;64.42;98729.02;137377;1276;22387;-79
2023/10/11 15:09:16;;;;;;;;;;;;;;;21.06;64.53;98736.61;137416;1276;22193;-80
2023/10/11 15:12:20;;;;;;;;;;;;;;;20.96;64.86;98735.50;137419;1276;22221;-78
2023/10/11 15:15:26;;;;;;;;;;;;;;;20.89;65.30;98738.92;137415;1276;22242;-79
2023/10/11 15:18:29;;;;;;;;;;;;;;;20.82;65.63;98741.77;137419;1276;22289;-79
2023/10/11 15:21:31;;;;;;;;;;;;;;;20.77;65.84;98738.02;137375;1276;22221;-79
2023/10/11 15:24:36;;;;;;;;;;;;;;;20.64;66.04;98746.71;137329;1276;22349;-79
2023/10/11 15:27:39;;;;;;;;;;;;;;;20.51;66.42;98748.18;137332;1276;22417;-78
2023/10/11 15:30:41;;;;;;;;;;;;;;;20.36;66.86;98750.55;137331;1276;22324;-78
2023/10/11 15:33:45;;;;;;;;;;;;;;;20.25;67.48;98749.25;137297;1276;22806;-78
2023/10/11 15:36:49;;;;;;;;;;;;;;;20.18;67.88;98753.71;137282;1276;22292;-78
2023/10/11 15:39:53;;;;;;;;;;;;;;;20.08;68.33;98753.63;137237;1263;22224;-79
2023/10/11 15:42:57;;;;;;;;;;;;;;;19.97;68.75;98756.92;137309;1276;22927;-78
2023/10/11 15:46:00;;;;;;;;;;;;;;;19.88;69.32;98761.23;137270;1276;22267;-79
2023/10/11 15:49:03;;;;;;;;;;;;;;;19.81;69.52;98759.47;137326;1276;22199;-79
2023/10/11 15:52:05;;;;;;;;;;;;;;;19.69;69.81;98764.55;137343;1275;22284;-78
2023/10/11 15:55:08;;;;;;;;;;;;;;;19.62;70.61;98761.20;137341;1276;22408;-79
2023/10/11 15:58:10;;;;;;;;;;;;;;;19.59;70.72;98760.92;137290;1276;22197;-79
2023/10/11 16:01:14;;;;;;;;;;;;;;;19.55;70.96;98758.20;137320;1276;22186;-79
2023/10/11 16:04:16;;;;;;;;;;;;;;;19.49;71.12;98755.33;137333;1276;22636;-79
2023/10/11 16:07:19;;;;;;;;;;;;;;;19.37;71.45;98745.91;137337;1276;22269;-79
2023/10/11 16:10:21;;;;;;;;;;;;;;;19.27;71.73;98750.05;137289;1276;22330;-79